Time;durP1;ratioP1;P1;durP2;ratioP2;P2;SDS_P1;SDS_P2;PMS_P1;PMS_P2;Temp;Humidity;BMP_temperature;BMP_pressure;BME280_temperature;BME280_humidity;BME280_pressure;Samples;Min_cycle;Max_cycle;Signal;HPM_P1;HPM_P2
2022/06/05 00:02:23;;;;;;;4.67;1.67;;;;;;;17.34;60.58;99614.34;1758733;80;21036;-69
2022/06/05 00:05:13;;;;;;;2.10;1.87;;;;;;;17.30;61.14;99614.25;1756926;81;21783;-69
2022/06/05 00:07:51;;;;;;;2.25;1.82;;;;;;;17.28;61.61;99618.02;1758402;80;21019;-70
2022/06/05 00:10:27;;;;;;;6.55;1.70;;;;;;;17.26;61.57;99623.13;1752741;81;21083;-73
2022/06/05 00:13:39;;;;;;;2.33;1.95;;;;;;;17.24;61.69;99632.42;1756699;80;21172;-70
2022/06/05 00:16:06;;;;;;;3.00;1.65;;;;;;;17.21;61.63;99631.19;1757839;80;20976;-70
2022/06/05 00:18:38;;;;;;;2.10;1.72;;;;;;;17.19;61.51;99620.99;1758405;81;21517;-70
2022/06/05 00:21:10;;;;;;;;;;;;;;;17.18;62.15;99609.63;1760914;81;21043;-72
2022/06/05 00:23:39;;;;;;;3.25;2.08;;;;;;;17.20;62.27;99607.86;1755145;81;20314;-70
2022/06/05 00:26:27;;;;;;;8.75;1.92;;;;;;;17.21;61.87;99602.53;1729679;81;22157;-73
2022/06/05 00:29:22;;;;;;;4.47;1.77;;;;;;;17.22;60.84;99596.59;1757999;81;21590;-72
2022/06/05 00:32:05;;;;;;;3.30;1.87;;;;;;;17.26;60.95;99590.51;1756609;81;21232;-70
2022/06/05 00:34:33;;;;;;;6.30;1.70;;;;;;;17.32;60.55;99581.87;1753796;81;21044;-68
2022/06/05 00:37:23;;;;;;;2.52;1.35;;;;;;;17.37;60.04;99576.02;1753462;81;21472;-67
2022/06/05 00:40:18;;;;;;;3.17;1.72;;;;;;;17.42;59.52;99577.73;1756798;81;21057;-69
2022/06/05 00:42:47;;;;;;;2.80;1.80;;;;;;;17.47;59.02;99581.01;1755596;81;20972;-71
2022/06/05 00:45:15;;;;;;;4.15;1.60;;;;;;;17.55;58.65;99579.77;1698709;81;21053;-71
2022/06/05 00:47:43;;;;;;;1.32;1.22;;;;;;;17.59;58.12;99574.48;1737265;81;20976;-69
2022/06/05 00:50:17;;;;;;;2.12;1.40;;;;;;;17.65;57.72;99573.61;1758845;81;20988;-71
2022/06/05 00:52:56;;;;;;;2.22;1.50;;;;;;;17.70;56.80;99564.96;1753851;81;21516;-72
2022/06/05 00:55:24;;;;;;;4.37;1.40;;;;;;;17.75;56.25;99564.67;1753488;81;20988;-72
2022/06/05 00:57:53;;;;;;;4.55;1.65;;;;;;;17.82;56.18;99575.72;1752723;81;22219;-74
2022/06/05 01:00:30;;;;;;;3.67;1.72;;;;;;;17.86;55.62;99577.39;1738110;81;21579;-71
2022/06/05 01:03:01;;;;;;;3.95;1.72;;;;;;;17.92;55.36;99570.95;1747433;81;21082;-70
2022/06/05 01:05:30;;;;;;;3.47;1.35;;;;;;;17.95;55.95;99563.81;1758029;81;21669;-71
2022/06/05 01:07:57;;;;;;;2.92;1.72;;;;;;;17.98;56.15;99565.89;1735526;81;21548;-72
2022/06/05 01:10:31;;;;;;;3.85;2.08;;;;;;;17.99;56.26;99564.12;1758501;81;21567;-71
2022/06/05 01:13:06;;;;;;;1.95;1.70;;;;;;;18.01;55.73;99564.53;1751822;81;21063;-71
2022/06/05 01:15:58;;;;;;;6.83;1.75;;;;;;;18.03;55.61;99560.59;1754569;81;21103;-70
2022/06/05 01:19:00;;;;;;;4.35;2.02;;;;;;;18.04;55.55;99556.61;1754933;81;21553;-69
2022/06/05 01:21:37;;;;;;;1.87;1.72;;;;;;;18.07;55.60;99561.44;1757927;81;21460;-71
2022/06/05 01:25:02;;;;;;;2.40;2.12;;;;;;;18.07;55.57;99558.08;1754598;81;21157;-67
2022/06/05 01:27:31;;;;;;;3.65;1.80;;;;;;;18.07;55.89;99553.08;1755652;81;21040;-69
2022/06/05 01:30:18;;;;;;;4.58;2.10;;;;;;;18.07;55.93;99556.68;1756615;81;21110;-72
2022/06/05 01:33:07;;;;;;;2.50;2.10;;;;;;;18.07;56.08;99569.22;1754111;81;21055;-69
2022/06/05 01:36:06;;;;;;;3.58;2.35;;;;;;;18.07;56.16;99558.08;1757412;81;21031;-70
2022/06/05 01:38:56;;;;;;;5.70;2.05;;;;;;;18.06;56.28;99561.23;1757871;80;21115;-72
2022/06/05 01:41:30;;;;;;;6.33;4.37;;;;;;;18.06;56.01;99562.05;1756780;81;21032;-71
2022/06/05 01:43:58;;;;;;;2.58;1.92;;;;;;;18.05;56.04;99562.42;1757050;80;21028;-73
2022/06/05 01:46:33;;;;;;;2.25;1.60;;;;;;;18.05;55.60;99562.42;1758116;80;20968;-68
2022/06/05 01:49:28;;;;;;;2.95;1.72;;;;;;;18.05;55.65;99562.42;1758740;81;21087;-70
2022/06/05 01:52:20;;;;;;;5.28;2.12;;;;;;;18.06;55.45;99561.23;1756420;81;21616;-73
2022/06/05 01:55:16;;;;;;;2.52;1.90;;;;;;;18.07;55.34;99560.05;1706233;80;21458;-70
2022/06/05 01:57:46;;;;;;;6.65;2.17;;;;;;;18.09;54.96;99568.85;1753727;81;21056;-71
2022/06/05 02:00:22;;;;;;;4.03;1.92;;;;;;;18.09;54.59;99564.09;1757487;80;21465;-71
2022/06/05 02:03:07;;;;;;;5.10;2.20;;;;;;;18.09;54.85;99569.67;1750876;81;21017;-72
2022/06/05 02:05:39;;;;;;;3.67;1.92;;;;;;;18.11;54.79;99565.11;1756358;81;21719;-71
2022/06/05 02:08:17;;;;;;;4.03;1.90;;;;;;;18.11;54.83;99564.53;1753682;81;21016;-70
2022/06/05 02:11:04;;;;;;;2.40;1.50;;;;;;;18.12;54.82;99557.77;1752081;81;22067;-69
2022/06/05 02:13:34;;;;;;;3.27;1.82;;;;;;;18.12;54.91;99548.59;1749969;81;21092;-72
2022/06/05 02:16:02;;;;;;;6.42;1.67;;;;;;;18.12;54.64;99546.62;1757071;81;21045;-69
2022/06/05 02:18:33;;;;;;;3.37;1.67;;;;;;;18.14;54.78;99547.67;1757566;80;21036;-69
2022/06/05 02:21:02;;;;;;;3.30;1.85;;;;;;;18.13;54.65;99541.89;1757963;81;21079;-69
2022/06/05 02:23:31;;;;;;;2.00;1.80;;;;;;;18.15;54.65;99540.12;1756474;81;21087;-70
2022/06/05 02:25:58;;;;;;;1.77;1.57;;;;;;;18.14;54.57;99529.55;1733707;81;22306;-72
2022/06/05 02:28:25;;;;;;;4.42;1.85;;;;;;;18.15;54.57;99522.78;1755470;81;20995;-69
2022/06/05 02:31:23;;;;;;;3.90;1.95;;;;;;;18.16;54.51;99520.81;1763446;80;21119;-70
2022/06/05 02:34:16;;;;;;;2.90;1.70;;;;;;;18.18;54.44;99522.64;1773752;80;21461;-71
2022/06/05 02:37:00;;;;;;;2.42;1.52;;;;;;;18.18;54.48;99526.25;1769865;80;21030;-72
2022/06/05 02:39:58;;;;;;;;;;;;;;;18.18;54.41;99529.61;1770675;80;21133;-70
2022/06/05 02:42:39;;;;;;;1.80;1.37;;;;;;;18.17;54.26;99536.37;1774320;80;20145;-70
2022/06/05 02:45:21;;;;;;;1.57;1.47;;;;;;;18.14;54.42;99530.94;1769165;80;21127;-70
2022/06/05 02:48:10;;;;;;;5.33;1.95;;;;;;;18.13;54.70;99530.73;1770019;80;20982;-70
2022/06/05 02:50:47;;;;;;;5.72;1.82;;;;;;;18.13;54.98;99530.13;1771994;80;21106;-71
2022/06/05 02:53:13;;;;;;;5.45;1.80;;;;;;;18.13;54.93;99523.16;1757293;81;21145;-72
2022/06/05 02:55:42;;;;;;;3.37;1.95;;;;;;;18.14;55.38;99518.40;1757572;81;21016;-71
2022/06/05 02:58:11;;;;;;;2.92;2.12;;;;;;;18.15;55.16;99512.24;1742315;81;21185;-69
2022/06/05 03:00:40;;;;;;;2.47;1.70;;;;;;;18.13;55.25;99512.62;1720338;81;21023;-72
2022/06/05 03:03:27;;;;;;;4.60;2.52;;;;;;;18.13;55.33;99515.41;1742947;81;21062;-71
2022/06/05 03:05:54;;;;;;;2.27;1.75;;;;;;;18.14;55.49;99512.82;1733609;81;20990;-70
2022/06/05 03:08:21;;;;;;;6.55;2.22;;;;;;;18.14;55.84;99505.85;1720518;81;21470;-72
2022/06/05 03:10:47;;;;;;;3.15;2.05;;;;;;;18.14;55.70;99503.06;1753714;81;21210;-69
2022/06/05 03:13:14;;;;;;;7.80;2.40;;;;;;;18.14;55.90;99510.03;1747706;81;21078;-70
2022/06/05 03:15:41;;;;;;;4.17;1.85;;;;;;;18.14;56.21;99514.22;1746889;81;21094;-70
2022/06/05 03:18:12;;;;;;;2.90;2.05;;;;;;;18.15;55.91;99513.64;1729643;81;21111;-70
2022/06/05 03:20:43;;;;;;;3.67;1.85;;;;;;;18.16;55.55;99515.23;1732477;81;21069;-69
2022/06/05 03:23:11;;;;;;;3.20;2.08;;;;;;;18.13;55.77;99512.62;1750825;80;21351;-70
2022/06/05 03:25:42;;;;;;;2.92;1.82;;;;;;;18.15;56.19;99507.45;1753306;80;21007;-69
2022/06/05 03:28:12;;;;;;;3.75;2.20;;;;;;;18.17;56.23;99508.50;1754038;80;21519;-71
2022/06/05 03:30:42;;;;;;;2.27;1.57;;;;;;;18.19;56.23;99507.52;1747771;80;21125;-70
2022/06/05 03:33:17;;;;;;;3.02;2.00;;;;;;;18.20;56.35;99511.32;1750514;80;21075;-69
2022/06/05 03:35:47;;;;;;;2.67;1.95;;;;;;;18.22;56.22;99515.94;1766668;80;22247;-71
2022/06/05 03:38:16;;;;;;;2.17;1.70;;;;;;;18.23;56.04;99514.78;1737480;80;20995;-71
2022/06/05 03:40:45;;;;;;;4.03;1.72;;;;;;;18.25;55.90;99520.77;1746947;81;21032;-71
2022/06/05 03:43:14;;;;;;;3.83;1.55;;;;;;;18.25;55.49;99517.98;1754083;81;21540;-69
2022/06/05 03:45:41;;;;;;;1.98;1.45;;;;;;;18.27;55.65;99515.42;1759160;81;21562;-69
2022/06/05 03:48:09;;;;;;;4.78;2.20;;;;;;;18.28;55.60;99517.03;1754333;81;21504;-72
2022/06/05 03:50:40;;;;;;;4.67;1.80;;;;;;;18.29;55.68;99522.23;1754976;81;21461;-69
2022/06/05 03:53:07;;;;;;;5.15;1.70;;;;;;;18.29;55.41;99527.80;1751466;81;21582;-70
2022/06/05 03:55:34;;;;;;;4.30;1.60;;;;;;;18.29;55.70;99529.20;1757958;81;20961;-68
2022/06/05 03:58:01;;;;;;;4.42;1.65;;;;;;;18.31;55.69;99521.85;1756098;80;21594;-68
2022/06/05 04:00:28;;;;;;;3.90;1.82;;;;;;;18.32;55.63;99524.27;1758113;81;21881;-70
2022/06/05 04:02:55;;;;;;;3.12;1.92;;;;;;;18.32;55.52;99531.23;1758337;81;21095;-70
2022/06/05 04:05:23;;;;;;;2.08;1.50;;;;;;;18.32;55.55;99534.02;1751185;81;21547;-70
2022/06/05 04:07:53;;;;;;;6.33;2.05;;;;;;;18.32;55.58;99527.05;1758204;81;21017;-69
2022/06/05 04:10:20;;;;;;;1.75;1.52;;;;;;;18.33;55.76;99527.87;1759068;81;21640;-72
2022/06/05 04:12:46;;;;;;;3.00;1.62;;;;;;;18.33;55.77;99525.89;1752719;81;21104;-69
2022/06/05 04:15:19;;;;;;;3.30;1.87;;;;;;;18.33;56.11;99529.27;1756619;81;21016;-70
2022/06/05 04:17:47;;;;;;;4.55;1.80;;;;;;;18.31;56.47;99524.06;1745644;81;20993;-71
2022/06/05 04:20:16;;;;;;;4.75;1.72;;;;;;;18.33;56.61;99531.47;1758020;81;20997;-72
2022/06/05 04:22:47;;;;;;;3.42;1.70;;;;;;;18.37;56.83;99537.11;1759747;80;21000;-69
2022/06/05 04:25:20;;;;;;;2.72;1.75;;;;;;;18.39;57.65;99536.13;1707474;81;21060;-69
2022/06/05 04:27:52;;;;;;;5.17;2.05;;;;;;;18.40;57.64;99529.97;1752985;81;21420;-72
2022/06/05 04:30:21;;;;;;;8.78;1.82;;;;;;;18.43;57.84;99538.40;1744377;81;21091;-71
2022/06/05 04:32:52;;;;;;;2.70;2.00;;;;;;;18.47;57.42;99544.85;1733099;81;21083;-69
2022/06/05 04:35:20;;;;;;;5.97;1.62;;;;;;;18.49;57.72;99542.47;1758411;81;21075;-70
2022/06/05 04:37:54;;;;;;;6.85;2.08;;;;;;;18.53;57.82;99544.51;1753650;81;21278;-73
2022/06/05 04:40:21;;;;;;;3.10;1.77;;;;;;;18.56;58.01;99556.34;1756546;81;21031;-69
2022/06/05 04:42:55;;;;;;;7.15;2.10;;;;;;;18.59;58.43;99556.98;1753744;81;21099;-69
2022/06/05 04:45:21;;;;;;;2.17;1.87;;;;;;;18.61;58.91;99560.99;1756601;81;20996;-69
2022/06/05 04:47:54;;;;;;;2.55;1.70;;;;;;;18.63;58.76;99564.80;1752451;81;21035;-69
2022/06/05 04:50:21;;;;;;;7.33;2.08;;;;;;;18.65;59.06;99569.42;1756827;81;22233;-69
2022/06/05 04:52:48;;;;;;;3.35;1.75;;;;;;;18.65;60.04;99577.80;1752438;81;21080;-72
2022/06/05 04:55:18;;;;;;;4.35;1.70;;;;;;;18.65;59.54;99583.95;1756658;80;21129;-72
2022/06/05 04:57:45;;;;;;;1.90;1.52;;;;;;;18.64;60.03;99585.95;1758485;81;21024;-71
2022/06/05 05:00:13;;;;;;;2.75;1.92;;;;;;;18.66;60.95;99592.56;1756575;81;21055;-69
2022/06/05 05:02:43;;;;;;;3.60;2.02;;;;;;;18.65;61.10;99597.33;1735717;81;21319;-70
2022/06/05 05:05:09;;;;;;;5.08;1.90;;;;;;;18.63;60.82;99604.47;1752294;81;21516;-71
2022/06/05 05:07:36;;;;;;;4.33;2.20;;;;;;;18.56;61.23;99600.36;1753493;81;21033;-73
2022/06/05 05:10:14;;;;;;;4.47;2.02;;;;;;;18.53;60.51;99605.88;1747985;81;21040;-70
2022/06/05 05:12:46;;;;;;;3.55;2.37;;;;;;;18.52;59.93;99602.30;1756539;81;21062;-68
2022/06/05 05:15:14;;;;;;;4.10;2.65;;;;;;;18.51;58.88;99601.28;1754831;81;21505;-67
2022/06/05 05:17:41;;;;;;;3.42;2.37;;;;;;;18.53;59.27;99608.67;1759228;80;21048;-69
2022/06/05 05:20:10;;;;;;;2.72;2.42;;;;;;;18.49;58.56;99610.81;1752348;81;21047;-68
2022/06/05 05:22:39;;;;;;;6.20;3.27;;;;;;;18.49;59.13;99607.23;1726015;81;21031;-66
2022/06/05 05:25:11;;;;;;;6.03;2.72;;;;;;;18.45;58.74;99607.17;1754354;81;21559;-67
2022/06/05 05:27:38;;;;;;;7.55;3.22;;;;;;;18.41;59.06;99610.47;1748165;81;21102;-67
2022/06/05 05:30:07;;;;;;;4.12;2.70;;;;;;;18.41;59.24;99604.89;1756351;80;20932;-68
2022/06/05 05:32:35;;;;;;;9.30;3.30;;;;;;;18.44;59.36;99604.15;1753641;80;21026;-68
2022/06/05 05:35:05;;;;;;;7.70;3.72;;;;;;;18.46;58.56;99605.98;1746755;81;21610;-68
2022/06/05 05:37:32;;;;;;;6.87;2.85;;;;;;;18.44;58.97;99609.72;1745144;81;21012;-68
2022/06/05 05:42:44;;;;;;;4.92;3.25;;;;;;;18.42;59.09;99614.08;1740075;81;21052;-69
2022/06/05 05:45:14;;;;;;;5.80;2.85;;;;;;;18.43;59.71;99619.86;1743883;81;22236;-70
2022/06/05 05:47:42;;;;;;;5.60;3.15;;;;;;;18.46;59.59;99617.72;1742117;81;21031;-71
2022/06/05 05:50:15;;;;;;;8.45;3.08;;;;;;;18.50;59.71;99624.17;1751617;80;21020;-69
2022/06/05 05:52:43;;;;;;;8.05;3.33;;;;;;;18.57;59.78;99623.50;1742321;80;21119;-71
2022/06/05 05:55:16;;;;;;;4.25;3.05;;;;;;;18.61;59.33;99627.95;1748144;81;21339;-67
2022/06/05 05:57:43;;;;;;;4.07;2.90;;;;;;;18.66;59.14;99618.48;1757243;81;21044;-68
2022/06/05 06:00:16;;;;;;;6.65;3.65;;;;;;;18.71;59.13;99616.75;1753357;81;21083;-67
2022/06/05 06:02:42;;;;;;;5.08;3.40;;;;;;;18.80;59.05;99617.10;1757014;80;21083;-68
2022/06/05 06:05:11;;;;;;;8.53;3.72;;;;;;;18.84;58.67;99617.37;1758039;81;21202;-68
2022/06/05 06:07:39;;;;;;;6.67;3.62;;;;;;;18.90;58.78;99615.05;1749931;81;21508;-70
2022/06/05 06:10:08;;;;;;;5.50;3.05;;;;;;;18.95;59.03;99617.52;1705620;81;21034;-67
2022/06/05 06:15:26;;;;;;;4.50;3.40;;;;;;;19.03;58.40;99598.91;1658499;84;21007;-68
2022/06/05 06:17:56;;;;;;;5.15;3.10;;;;;;;19.08;58.20;99597.77;1678883;84;21217;-68
2022/06/05 06:20:22;;;;;;;9.55;3.85;;;;;;;19.16;58.66;99594.51;1680014;84;21039;-69
2022/06/05 06:22:48;;;;;;;11.22;4.03;;;;;;;19.26;58.96;99593.86;1683151;84;21090;-68
2022/06/05 06:25:15;;;;;;;6.58;3.62;;;;;;;19.27;57.09;99594.67;1679223;84;21024;-69
2022/06/05 06:27:42;;;;;;;8.13;4.20;;;;;;;19.22;56.67;99602.80;1679689;84;21101;-68
2022/06/05 06:30:09;;;;;;;5.25;3.90;;;;;;;19.22;57.27;99602.80;1679434;84;21117;-68
2022/06/05 06:32:36;;;;;;;7.55;4.28;;;;;;;19.26;58.76;99607.82;1649205;84;21037;-67
2022/06/05 06:35:05;;;;;;;7.50;5.08;;;;;;;19.32;58.36;99603.53;1674951;84;21147;-67
2022/06/05 06:37:32;;;;;;;9.28;4.42;;;;;;;19.40;58.18;99603.03;1678575;84;21520;-68
2022/06/05 06:39:58;;;;;;;9.28;5.03;;;;;;;19.49;57.60;99605.55;1673553;84;21058;-70
2022/06/05 06:42:25;;;;;;;12.78;5.62;;;;;;;19.57;57.06;99607.82;1674093;84;21129;-70
2022/06/05 06:44:53;;;;;;;10.75;4.83;;;;;;;19.57;56.13;99606.42;1673421;84;21014;-69
2022/06/05 06:47:19;;;;;;;13.00;5.20;;;;;;;19.54;56.11;99604.39;1652359;84;21497;-69
2022/06/05 06:49:48;;;;;;;9.23;4.78;;;;;;;19.55;56.40;99599.83;1629712;84;21014;-68
2022/06/05 06:52:15;;;;;;;12.40;4.75;;;;;;;19.61;55.87;99600.89;1646342;84;21084;-71
2022/06/05 06:54:41;;;;;;;10.50;5.50;;;;;;;19.64;55.60;99601.52;1653379;84;21608;-68
2022/06/05 06:57:09;;;;;;;11.28;5.00;;;;;;;19.69;55.57;99594.20;1656921;84;21049;-67
2022/06/05 06:59:39;;;;;;;8.75;5.05;;;;;;;19.76;55.65;99597.67;1655180;84;21067;-68
2022/06/05 07:02:06;;;;;;;12.93;5.53;;;;;;;19.79;55.42;99600.51;1649136;84;21128;-68
2022/06/05 07:04:34;;;;;;;6.87;4.80;;;;;;;19.82;55.61;99598.95;1644466;84;21041;-70
2022/06/05 07:07:06;;;;;;;12.68;5.00;;;;;;;19.87;56.02;99600.60;1651764;84;21548;-67
2022/06/05 07:09:33;;;;;;;7.97;5.30;;;;;;;19.93;56.36;99608.84;1653988;84;21044;-68
2022/06/05 07:12:00;;;;;;;8.48;5.60;;;;;;;19.98;55.78;99607.72;1647220;84;21096;-69
2022/06/05 07:14:26;;;;;;;8.88;5.00;;;;;;;20.00;55.86;99601.94;1640767;84;21112;-66
2022/06/05 07:16:55;;;;;;;7.95;5.15;;;;;;;20.05;56.25;99603.61;1653864;85;21014;-67
2022/06/05 07:19:22;;;;;;;10.55;6.00;;;;;;;20.07;56.43;99594.25;1640110;85;21798;-67
2022/06/05 07:21:52;;;;;;;9.50;6.35;;;;;;;20.04;55.99;99600.03;1650839;85;21013;-70
2022/06/05 07:24:19;;;;;;;10.43;6.75;;;;;;;20.00;56.06;99600.55;1647439;85;21112;-67
2022/06/05 07:26:45;;;;;;;13.25;7.03;;;;;;;19.94;55.91;99604.27;1634683;85;21516;-68
2022/06/05 07:29:15;;;;;;;13.78;7.92;;;;;;;19.90;56.08;99602.04;1641635;85;21128;-69
2022/06/05 07:31:43;;;;;;;13.98;7.03;;;;;;;19.89;55.81;99602.42;1650196;85;21175;-68
2022/06/05 07:34:10;;;;;;;18.15;7.90;;;;;;;19.83;55.07;99595.78;1639686;85;21109;-69
2022/06/05 07:36:37;;;;;;;15.83;7.42;;;;;;;19.77;55.54;99602.09;1643723;85;21062;-70
2022/06/05 07:39:04;;;;;;;12.58;6.40;;;;;;;19.71;55.70;99603.02;1649766;85;21068;-70
2022/06/05 07:41:38;;;;;;;9.83;5.58;;;;;;;19.66;56.12;99606.95;1647473;85;21072;-69
2022/06/05 07:44:06;;;;;;;14.05;5.15;;;;;;;19.62;56.24;99613.69;1644591;85;21105;-70
2022/06/05 07:46:36;;;;;;;4.00;3.00;;;;;;;19.58;56.54;99616.44;1651269;85;21042;-71
2022/06/05 07:49:05;;;;;;;3.80;2.77;;;;;;;19.56;57.03;99614.61;1639070;85;21085;-69
2022/06/05 07:54:33;;;;;;;3.00;2.52;;;;;;;19.49;57.37;99611.13;1630424;85;21128;-71
2022/06/05 07:57:08;;;;;;;5.05;2.50;;;;;;;19.46;57.28;99611.28;1641438;85;21077;-68
2022/06/05 07:59:47;;;;;;;3.47;1.90;;;;;;;19.42;56.78;99614.63;1639393;85;21064;-71
2022/06/05 08:02:23;;;;;;;3.65;2.00;;;;;;;19.39;56.23;99610.39;1638544;85;21064;-68
2022/06/05 08:04:52;;;;;;;4.05;2.25;;;;;;;19.36;56.54;99611.16;1646205;85;21096;-69
2022/06/05 08:07:24;;;;;;;2.58;1.92;;;;;;;19.27;56.35;99609.45;1639412;85;21133;-69
2022/06/05 08:09:53;;;;;;;4.78;2.27;;;;;;;19.25;57.06;99615.19;1640571;85;22136;-68
2022/06/05 08:12:31;;;;;;;6.33;2.40;;;;;;;19.25;57.18;99601.22;1644474;84;21086;-69
2022/06/05 08:15:12;;;;;;;7.70;2.05;;;;;;;19.20;57.23;99603.17;1642559;85;21048;-70
2022/06/05 08:17:42;;;;;;;5.10;1.82;;;;;;;19.19;57.08;99598.75;1641193;85;21593;-68
2022/06/05 08:20:10;;;;;;;5.30;2.42;;;;;;;19.17;56.70;99598.92;1643305;85;21603;-68
2022/06/05 08:22:39;;;;;;;9.53;2.80;;;;;;;19.12;56.94;99600.07;1643793;85;21152;-72
2022/06/05 08:25:11;;;;;;;11.33;4.20;;;;;;;19.11;57.31;99604.64;1641852;85;21965;-69
2022/06/05 08:27:46;;;;;;;11.43;4.58;;;;;;;19.11;57.55;99604.02;1642060;85;21676;-68
2022/06/05 08:30:12;;;;;;;13.88;4.33;;;;;;;19.09;58.09;99607.75;1640622;85;21096;-68
2022/06/05 08:32:40;;;;;;;14.73;4.45;;;;;;;19.11;58.29;99603.23;1677438;84;21590;-68
2022/06/05 08:35:15;;;;;;;7.12;3.98;;;;;;;19.18;58.64;99604.72;1714192;83;21108;-69
2022/06/05 08:43:54;;;;;;;9.33;3.58;;;;;;;19.37;56.16;99606.58;1706695;83;21055;-71
2022/06/05 08:46:27;;;;;;;9.20;3.77;;;;;;;19.38;57.50;99608.18;1688047;83;21182;-74
2022/06/05 08:49:09;;;;;;;6.00;3.45;;;;;;;19.46;58.38;99609.88;1706668;83;21142;-72
2022/06/05 08:52:05;;;;;;;6.53;3.33;;;;;;;19.54;57.90;99608.00;1706941;83;21062;-70
2022/06/05 08:54:37;;;;;;;;;;;;;;;19.63;57.82;99613.31;1711680;83;21035;-71
2022/06/05 08:57:14;;;;;;;15.10;3.10;;;;;;;19.70;58.25;99614.77;1699330;83;20173;-68
2022/06/05 09:00:07;;;;;;;7.17;3.17;;;;;;;19.77;58.52;99624.45;1701666;83;21007;-70
2022/06/05 09:02:56;;;;;;;4.78;3.08;;;;;;;19.81;58.59;99625.28;1725790;82;21076;-67
2022/06/05 09:05:38;;;;;;;5.00;3.30;;;;;;;19.86;58.51;99622.15;1712518;82;21060;-69
2022/06/05 09:08:13;;;;;;;3.40;3.02;;;;;;;19.85;58.28;99627.54;1710553;83;21016;-70
2022/06/05 09:10:49;;;;;;;5.15;2.42;;;;;;;19.87;58.38;99629.37;1687035;83;21031;-70
2022/06/05 09:13:50;;;;;;;3.12;2.58;;;;;;;19.93;58.53;99633.42;1709276;83;20998;-71
2022/06/05 09:16:24;;;;;;;7.80;2.37;;;;;;;20.00;58.37;99627.69;1693472;83;21079;-67
2022/06/05 09:18:53;;;;;;;8.10;3.17;;;;;;;20.06;58.51;99638.80;1695963;83;20994;-70
2022/06/05 09:21:28;;;;;;;3.95;2.60;;;;;;;20.06;58.67;99631.80;1710464;82;21042;-70
2022/06/05 09:24:27;;;;;;;4.05;2.22;;;;;;;20.06;58.15;99636.78;1714410;83;21072;-69
2022/06/05 09:27:02;;;;;;;10.18;2.17;;;;;;;20.09;57.07;99638.61;1712219;83;21023;-70
2022/06/05 09:29:42;;;;;;;4.45;1.98;;;;;;;20.05;56.42;99646.37;1706062;83;21164;-70
2022/06/05 09:32:52;;;;;;;3.65;1.80;;;;;;;20.05;56.06;99646.37;1708496;83;21118;-69
2022/06/05 09:35:27;;;;;;;2.75;1.80;;;;;;;20.03;55.51;99642.30;1709730;83;21141;-71
2022/06/05 09:38:27;;;;;;;5.83;1.90;;;;;;;20.05;55.68;99639.96;1706722;83;21075;-70
2022/06/05 09:41:12;;;;;;;5.50;2.00;;;;;;;20.08;55.41;99645.40;1686663;83;21197;-70
2022/06/05 09:44:07;;;;;;;3.85;2.30;;;;;;;20.06;55.34;99640.19;1713503;83;21143;-70
2022/06/05 09:47:01;;;;;;;3.05;2.10;;;;;;;20.04;55.99;99639.77;1705550;83;21115;-70
2022/06/05 09:49:38;;;;;;;2.92;2.08;;;;;;;20.02;55.83;99643.50;1703606;83;21012;-69
2022/06/05 09:52:26;;;;;;;5.62;2.58;;;;;;;19.98;56.07;99632.88;1709945;83;21118;-69
2022/06/05 09:55:12;;;;;;;2.85;1.92;;;;;;;19.95;56.51;99640.84;1712136;83;21023;-68
2022/06/05 10:00:50;;;;;;;3.90;1.87;;;;;;;20.02;57.10;99645.71;1717145;83;21095;-69
2022/06/05 10:03:21;;;;;;;3.58;1.87;;;;;;;20.08;56.81;99644.78;1714472;83;21046;-69
2022/06/05 10:06:34;;;;;;;2.67;1.52;;;;;;;20.14;57.09;99646.07;1705869;83;21032;-68
2022/06/05 10:09:26;;;;;;;2.52;1.47;;;;;;;20.20;56.42;99650.70;1708663;83;21404;-69
2022/06/05 10:12:01;;;;;;;6.25;2.52;;;;;;;20.26;55.87;99646.98;1706988;83;21027;-68
2022/06/05 10:15:00;;;;;;;2.77;1.92;;;;;;;20.33;56.21;99641.47;1708505;82;21770;-69
2022/06/05 10:17:56;;;;;;;3.27;1.77;;;;;;;20.37;55.50;99640.89;1710584;83;21063;-69
2022/06/05 10:20:56;;;;;;;3.55;1.42;;;;;;;20.40;56.06;99634.52;1702937;83;21046;-69
2022/06/05 10:23:48;;;;;;;1.72;1.35;;;;;;;20.48;56.15;99636.81;1703445;83;21023;-69
2022/06/05 10:26:35;;;;;;;1.72;1.40;;;;;;;20.59;56.24;99641.09;1702612;83;21791;-69
2022/06/05 10:29:42;;;;;;;3.15;1.90;;;;;;;20.68;56.11;99640.19;1704750;83;21072;-71
2022/06/05 10:32:56;;;;;;;5.17;1.67;;;;;;;20.79;55.57;99642.27;1680818;83;21656;-67
2022/06/05 10:35:44;;;;;;;8.10;1.77;;;;;;;20.78;54.99;99646.25;1706951;83;21036;-71
2022/06/05 10:38:33;;;;;;;6.25;1.60;;;;;;;20.81;55.05;99653.89;1709514;82;20998;-70
2022/06/05 10:41:24;;;;;;;3.90;1.50;;;;;;;20.83;55.12;99650.09;1706053;83;21464;-70
2022/06/05 10:44:26;;;;;;;4.83;1.60;;;;;;;20.92;54.94;99651.98;1705508;83;21290;-70
2022/06/05 10:47:33;;;;;;;3.80;1.92;;;;;;;20.96;54.97;99653.44;1718770;83;21543;-74
2022/06/05 10:50:19;;;;;;;3.45;1.92;;;;;;;21.08;55.33;99649.52;1708510;83;21108;-71
2022/06/05 10:53:06;;;;;;;3.02;1.52;;;;;;;21.21;54.50;99656.19;1692990;83;21156;-71
2022/06/05 10:56:01;;;;;;;5.87;2.02;;;;;;;21.24;53.99;99654.03;1686433;83;21102;-70
2022/06/05 10:58:47;;;;;;;4.37;2.00;;;;;;;21.26;53.83;99651.03;1713720;83;21106;-70
2022/06/05 11:02:04;;;;;;;2.98;2.12;;;;;;;21.34;53.26;99653.89;1673803;83;21117;-72
2022/06/05 11:04:48;;;;;;;4.83;1.50;;;;;;;21.40;53.06;99662.12;1712015;83;21082;-71
2022/06/05 11:07:41;;;;;;;3.92;1.32;;;;;;;21.50;53.05;99660.57;1709843;83;20974;-73
2022/06/05 11:13:53;;;;;;;3.30;1.95;;;;;;;21.67;52.41;99661.05;1714946;83;21086;-68
2022/06/05 11:16:30;;;;;;;3.40;1.90;;;;;;;21.77;52.25;99664.50;1707048;83;21027;-71
2022/06/05 11:19:37;;;;;;;4.50;1.80;;;;;;;21.87;52.58;99657.39;1683386;83;21115;-70
2022/06/05 11:22:10;;;;;;;3.08;1.50;;;;;;;21.97;52.52;99662.20;1708235;83;21478;-70
2022/06/05 11:24:55;;;;;;;1.92;1.40;;;;;;;22.09;51.76;99654.03;1714741;83;21477;-69
2022/06/05 11:27:37;;;;;;;3.27;1.70;;;;;;;22.15;51.11;99649.44;1714917;83;21089;-71
2022/06/05 11:30:24;;;;;;;2.80;1.30;;;;;;;22.12;51.33;99653.27;1711855;83;21080;-73
2022/06/05 11:33:27;;;;;;;1.70;1.60;;;;;;;22.21;51.22;99653.48;1707056;83;21039;-74
2022/06/05 11:36:35;;;;;;;3.35;1.42;;;;;;;22.24;49.57;99647.88;1706521;83;21165;-71
2022/06/05 11:39:28;;;;;;;4.37;2.30;;;;;;;22.24;50.08;99653.50;1705028;83;21299;-70
2022/06/05 11:42:26;;;;;;;2.52;2.00;;;;;;;22.36;51.15;99646.70;1705125;83;21527;-68
2022/06/05 11:45:30;;;;;;;2.67;1.47;;;;;;;22.49;51.04;99648.52;1706524;83;21320;-69
2022/06/05 11:48:22;;;;;;;2.60;1.37;;;;;;;22.63;50.05;99651.75;1702670;83;21072;-69
2022/06/05 11:51:05;;;;;;;2.12;1.25;;;;;;;22.71;49.43;99652.77;1705186;83;21818;-70
2022/06/05 11:54:04;;;;;;;2.17;1.50;;;;;;;22.73;48.79;99655.17;1701225;83;21262;-68
2022/06/05 11:57:02;;;;;;;2.20;1.52;;;;;;;22.77;48.26;99650.37;1716417;83;21019;-71
2022/06/05 11:59:40;;;;;;;3.47;1.42;;;;;;;22.78;48.33;99653.38;1705251;83;21688;-68
2022/06/05 12:02:40;;;;;;;5.72;1.40;;;;;;;22.76;47.83;99662.79;1704474;83;21015;-69
2022/06/05 12:05:52;;;;;;;4.90;1.20;;;;;;;22.74;48.16;99662.38;1712175;83;20990;-68
2022/06/05 12:08:23;;;;;;;2.72;1.52;;;;;;;22.83;47.56;99670.41;1674279;84;21078;-67
2022/06/05 12:10:59;;;;;;;5.70;2.42;;;;;;;22.94;46.84;99669.83;1667723;84;21062;-69
2022/06/05 12:14:00;;;;;;;4.10;1.52;;;;;;;23.01;46.62;99664.00;1696325;83;21192;-70
2022/06/05 12:16:40;;;;;;;6.12;1.80;;;;;;;23.05;46.61;99662.78;1710552;83;21043;-70
2022/06/05 12:19:14;;;;;;;1.30;1.20;;;;;;;23.08;46.04;99656.35;1709608;83;21019;-69
2022/06/05 12:22:23;;;;;;;5.60;3.17;;;;;;;23.08;44.86;99656.35;1708672;83;21163;-68
2022/06/05 12:25:10;;;;;;;2.67;1.70;;;;;;;23.05;45.61;99657.76;1682188;83;21063;-70
2022/06/05 12:27:59;;;;;;;5.47;2.70;;;;;;;23.13;45.29;99660.78;1705922;83;21110;-69
2022/06/05 12:30:38;;;;;;;7.62;2.40;;;;;;;23.19;44.15;99654.13;1709535;83;21125;-70
2022/06/05 12:33:34;;;;;;;5.97;2.17;;;;;;;23.24;44.77;99659.34;1708402;83;21111;-71
2022/06/05 12:36:28;;;;;;;4.25;1.50;;;;;;;23.29;44.98;99659.53;1685495;83;22323;-72
2022/06/05 12:39:02;;;;;;;1.20;1.10;;;;;;;23.32;44.11;99654.53;1682966;83;21134;-69
2022/06/05 12:42:06;;;;;;;2.35;1.85;;;;;;;23.29;43.64;99661.75;1710571;83;21019;-72
2022/06/05 12:44:44;;;;;;;2.10;1.50;;;;;;;23.07;43.01;99658.16;1709406;83;21103;-72